Time;durP1;ratioP1;P1;durP2;ratioP2;P2;SDS_P1;SDS_P2;PMS_P1;PMS_P2;Temp;Humidity;BMP_temperature;BMP_pressure;BME280_temperature;BME280_humidity;BME280_pressure;Samples;Min_cycle;Max_cycle;Signal;HPM_P1;HPM_P2
2023/10/04 00:04:18;;;;;;;3.65;3.33;;;12.30;99.90;;;13.04;100.00;99083.09;10315163;28;20239;-66
2023/10/04 00:09:22;;;;;;;4.57;3.65;;;12.30;99.90;;;12.84;100.00;99077.50;10311149;28;20274;-68
2023/10/04 00:14:25;;;;;;;3.13;2.92;;;12.10;99.90;;;12.88;100.00;99094.03;10310610;28;20734;-67
2023/10/04 00:19:29;;;;;;;3.20;2.85;;;12.10;99.90;;;12.79;100.00;99091.72;10316530;28;20253;-65
2023/10/04 00:24:32;;;;;;;4.90;3.35;;;12.00;99.90;;;12.52;100.00;99089.81;10311199;28;20773;-67
2023/10/04 00:29:36;;;;;;;5.35;3.42;;;11.80;99.90;;;12.61;100.00;99091.34;10316016;28;20282;-66
2023/10/04 00:34:41;;;;;;;3.05;2.83;;;11.80;99.90;;;12.42;100.00;99098.56;10313932;28;20246;-66
2023/10/04 00:39:44;;;;;;;3.55;3.25;;;11.70;99.90;;;12.50;100.00;99099.97;10310423;28;20227;-67
2023/10/04 00:44:47;;;;;;;4.68;3.10;;;11.70;99.90;;;12.36;100.00;99098.09;10310240;28;20242;-66
2023/10/04 00:49:52;;;;;;;3.35;2.53;;;11.60;99.90;;;12.36;100.00;99109.28;10315605;28;20250;-66
2023/10/04 00:54:55;;;;;;;3.60;2.55;;;11.60;99.90;;;12.36;100.00;99103.25;10309557;28;20242;-67
2023/10/04 00:59:58;;;;;;;3.50;2.90;;;11.50;99.90;;;12.32;100.00;99096.13;10317710;28;20245;-68
2023/10/04 01:05:04;;;;;;;3.05;2.83;;;11.50;99.90;;;12.19;100.00;99089.25;10310767;28;20875;-66
2023/10/04 01:10:14;;;;;;;3.97;2.90;;;11.40;99.90;;;12.13;100.00;99096.50;10308627;28;20770;-68
2023/10/04 01:15:32;;;;;;;3.08;2.80;;;11.40;99.90;;;12.09;100.00;99097.97;10312405;28;20261;-67
2023/10/04 01:20:38;;;;;;;2.70;2.50;;;11.30;99.90;;;12.04;100.00;99083.91;10310262;28;20280;-66
2023/10/04 01:25:46;;;;;;;4.65;3.60;;;11.30;99.90;;;12.05;100.00;99095.09;10316358;28;20622;-68
2023/10/04 01:30:51;;;;;;;3.75;3.10;;;11.30;99.90;;;12.11;100.00;99086.16;10310951;28;20975;-66
2023/10/04 01:35:55;;;;;;;4.53;3.65;;;11.40;99.90;;;12.09;100.00;99091.94;10313299;28;20684;-65
2023/10/04 01:41:00;;;;;;;11.85;3.92;;;11.40;99.90;;;12.03;100.00;99082.16;10310906;28;20370;-66
2023/10/04 01:46:04;;;;;;;5.13;4.05;;;11.40;99.90;;;12.06;100.00;99092.63;10313614;28;20235;-66
2023/10/04 01:51:07;;;;;;;11.45;4.07;;;11.30;99.90;;;11.95;100.00;99086.72;10311519;28;20233;-65
2023/10/04 01:56:12;;;;;;;18.27;4.65;;;11.30;99.90;;;11.86;100.00;99095.44;10311025;28;20238;-65
2023/10/04 02:01:15;;;;;;;3.45;3.15;;;11.10;99.90;;;11.84;100.00;99094.38;10308918;28;20246;-66
2023/10/04 02:06:18;;;;;;;4.30;3.70;;;11.10;99.90;;;12.04;100.00;99094.16;10307372;28;20766;-66
2023/10/04 02:11:23;;;;;;;3.53;3.22;;;11.30;99.90;;;12.08;100.00;99082.50;10308412;28;20327;-65
2023/10/04 02:16:26;;;;;;;4.55;3.28;;;11.30;99.90;;;11.98;100.00;99101.41;10308445;28;20886;-65
2023/10/04 02:21:31;;;;;;;3.97;3.58;;;11.20;99.90;;;11.84;100.00;99090.16;10311630;28;20250;-65
2023/10/04 02:26:36;;;;;;;3.70;3.40;;;11.10;99.90;;;11.92;100.00;99098.44;10314123;28;20306;-68
2023/10/04 02:31:39;;;;;;;3.67;3.38;;;11.10;99.90;;;11.95;100.00;99093.53;10310587;28;20242;-66
2023/10/04 02:36:45;;;;;;;3.30;3.00;;;11.20;99.90;;;12.01;100.00;99101.63;10309899;28;20231;-65
2023/10/04 02:41:49;;;;;;;3.17;2.90;;;11.20;99.90;;;12.06;100.00;99097.75;10311373;28;20610;-66
2023/10/04 02:46:53;;;;;;;3.30;3.00;;;11.30;99.90;;;12.02;100.00;99090.63;10308432;28;20524;-65
2023/10/04 02:51:56;;;;;;;3.85;3.17;;;11.20;99.90;;;11.91;100.00;99096.66;10309319;28;20227;-65
2023/10/04 02:57:03;;;;;;;7.28;3.42;;;11.20;99.90;;;11.93;100.00;99106.25;10310454;28;20738;-68
2023/10/04 03:02:07;;;;;;;3.50;2.97;;;11.20;99.90;;;11.93;100.00;99105.31;10306927;28;20875;-66
2023/10/04 03:07:11;;;;;;;3.10;2.83;;;11.20;99.90;;;11.98;100.00;99109.13;10305469;28;20238;-66
2023/10/04 03:12:15;;;;;;;3.25;2.95;;;11.20;99.90;;;12.01;100.00;99099.06;10310286;28;20233;-67
2023/10/04 03:17:19;;;;;;;2.90;2.70;;;11.30;99.90;;;12.00;100.00;99110.13;10310410;28;20812;-67
2023/10/04 03:22:23;;;;;;;3.05;2.75;;;11.20;99.90;;;12.07;100.00;99102.06;10314112;28;20242;-66
2023/10/04 03:27:27;;;;;;;4.30;2.83;;;11.20;99.90;;;12.08;100.00;99109.00;10312995;28;20640;-67
2023/10/04 03:32:30;;;;;;;3.40;2.85;;;11.20;99.90;;;11.85;100.00;99106.44;10312697;28;20310;-66
2023/10/04 03:37:39;;;;;;;4.15;3.53;;;11.00;99.90;;;11.87;100.00;99110.00;10314690;28;20261;-66
2023/10/04 03:42:43;;;;;;;3.55;3.00;;;11.10;99.90;;;11.83;100.00;99111.44;10313132;28;20254;-65
2023/10/04 03:47:50;;;;;;;3.28;2.97;;;11.10;99.90;;;11.81;100.00;99106.97;10313776;28;20238;-69
2023/10/04 03:52:53;;;;;;;4.03;3.28;;;11.00;99.90;;;11.67;100.00;99109.41;10313600;28;20245;-67
2023/10/04 03:57:58;;;;;;;3.47;3.17;;;10.90;99.90;;;11.65;100.00;99107.56;10312931;28;20231;-66
2023/10/04 04:03:03;;;;;;;4.43;2.78;;;10.80;99.90;;;11.60;100.00;99111.44;10314256;28;20572;-66
2023/10/04 04:08:07;;;;;;;3.78;2.88;;;10.80;99.90;;;11.57;100.00;99119.78;10314724;28;20807;-67
2023/10/04 04:13:11;;;;;;;3.90;3.10;;;10.80;99.90;;;11.68;100.00;99120.56;10314907;28;20282;-66
2023/10/04 04:18:19;;;;;;;3.72;3.30;;;10.90;99.90;;;11.65;100.00;99113.56;10309879;28;20250;-66
2023/10/04 04:23:23;;;;;;;5.72;4.47;;;10.90;99.90;;;11.66;100.00;99107.66;10310424;28;20234;-66
2023/10/04 04:28:29;;;;;;;6.00;4.28;;;10.90;99.90;;;11.60;100.00;99112.31;10313450;28;20227;-66
2023/10/04 04:33:34;;;;;;;5.43;4.30;;;10.80;99.90;;;11.58;100.00;99124.13;10313440;28;20243;-66
2023/10/04 04:38:40;;;;;;;4.43;4.03;;;10.80;99.90;;;11.58;100.00;99129.25;10312826;28;20310;-66
2023/10/04 04:43:45;;;;;;;4.93;4.05;;;10.80;99.90;;;11.41;100.00;99121.97;10309261;28;20813;-66
2023/10/04 04:48:49;;;;;;;5.15;3.65;;;10.60;99.90;;;11.36;100.00;99120.75;10308780;28;20223;-67
2023/10/04 04:53:53;;;;;;;3.90;3.50;;;10.70;99.90;;;11.39;100.00;99134.69;10309983;28;20230;-67
2023/10/04 04:58:57;;;;;;;5.03;4.00;;;10.60;99.90;;;11.34;100.00;99138.56;10313676;28;20231;-67
2023/10/04 05:04:05;;;;;;;4.85;4.15;;;10.50;99.90;;;11.24;100.00;99138.63;10314573;28;20240;-67
2023/10/04 05:09:10;;;;;;;4.93;3.80;;;10.40;99.90;;;11.27;100.00;99139.78;10313370;28;20230;-67
2023/10/04 05:14:15;;;;;;;5.35;4.28;;;10.40;99.90;;;11.34;100.00;99137.69;10312638;28;20234;-67
2023/10/04 05:19:18;;;;;;;5.45;4.95;;;10.50;99.90;;;11.22;100.00;99135.97;10306572;28;20223;-67
2023/10/04 05:24:22;;;;;;;5.15;4.28;;;10.40;99.90;;;11.23;100.00;99142.88;10311243;28;20238;-67
2023/10/04 05:29:27;;;;;;;5.45;4.57;;;10.40;99.90;;;11.20;100.00;99136.66;10312737;28;20609;-67
2023/10/04 05:34:30;;;;;;;5.05;4.50;;;10.40;99.90;;;11.10;100.00;99129.91;10311205;28;20227;-67
2023/10/04 05:39:33;;;;;;;3.70;3.40;;;10.40;99.90;;;11.05;100.00;99129.59;10310461;28;20233;-67
2023/10/04 05:44:38;;;;;;;3.42;2.83;;;10.30;99.90;;;11.02;100.00;99128.47;10311825;28;20231;-67
2023/10/04 05:49:41;;;;;;;3.25;2.95;;;10.20;99.90;;;11.05;100.00;99138.94;10313007;28;20222;-67
2023/10/04 05:54:46;;;;;;;3.10;2.90;;;10.20;99.90;;;10.95;100.00;99133.88;10311441;28;20742;-67
2023/10/04 05:59:51;;;;;;;3.45;3.20;;;10.10;99.90;;;10.86;100.00;99143.44;10315111;28;20234;-67
2023/10/04 06:04:54;;;;;;;3.60;3.30;;;10.10;99.90;;;11.01;100.00;99142.91;10314101;28;20233;-67
2023/10/04 06:09:57;;;;;;;4.15;3.55;;;10.20;99.90;;;11.15;100.00;99138.84;10314191;28;20718;-67
2023/10/04 06:15:02;;;;;;;5.00;4.50;;;10.40;99.90;;;11.30;100.00;99158.69;10312502;28;20241;-67
2023/10/04 06:20:22;;;;;;;4.35;3.95;;;10.50;99.90;;;11.41;100.00;99157.81;10321439;28;20317;-67
2023/10/04 06:25:28;;;;;;;5.88;5.28;;;10.60;99.90;;;11.38;100.00;99161.03;10313518;28;20346;-67
2023/10/04 06:30:35;;;;;;;5.07;4.57;;;10.50;99.90;;;11.38;100.00;99167.84;10309555;28;20222;-67
2023/10/04 06:35:42;;;;;;;13.35;9.32;;;10.50;99.90;;;11.87;100.00;99166.38;10314684;28;20237;-67
2023/10/04 06:40:46;;;;;;;8.80;7.60;;;10.80;99.90;;;12.01;100.00;99169.94;10307097;28;20226;-66
2023/10/04 06:45:50;;;;;;;11.63;9.65;;;11.00;99.90;;;12.11;100.00;99168.16;10314115;28;20618;-67
2023/10/04 06:50:54;;;;;;;7.68;5.63;;;11.10;99.90;;;12.07;100.00;99181.50;10318051;28;20230;-67
2023/10/04 06:55:57;;;;;;;6.03;4.75;;;11.00;99.90;;;12.10;100.00;99189.47;10320908;28;20227;-67
2023/10/04 07:01:02;;;;;;;5.13;4.55;;;11.10;99.90;;;12.36;100.00;99187.84;10323347;28;20254;-67
2023/10/04 07:06:09;;;;;;;4.43;4.03;;;11.30;99.90;;;12.70;100.00;99185.09;10321454;28;20776;-68
2023/10/04 07:11:13;;;;;;;12.50;10.85;;;11.70;99.90;;;13.21;100.00;99182.69;10324398;28;20223;-67
2023/10/04 07:16:18;;;;;;;5.88;5.38;;;12.20;99.90;;;13.98;100.00;99185.25;10319846;28;20234;-67
2023/10/04 07:21:21;;;;;;;4.68;4.28;;;12.90;99.90;;;14.56;96.54;99177.81;10321651;28;20235;-67
2023/10/04 07:26:24;;;;;;;4.88;4.47;;;13.50;99.90;;;15.00;95.24;99187.41;10321873;28;20318;-67
2023/10/04 07:31:31;;;;;;;5.60;5.10;;;13.90;99.90;;;15.48;91.24;99198.88;10315657;28;20254;-67
2023/10/04 07:36:34;;;;;;;5.13;4.72;;;14.40;99.90;;;15.68;90.80;99198.41;10319679;28;20812;-67
2023/10/04 07:41:38;;;;;;;4.78;4.38;;;14.50;99.90;;;15.95;89.52;99195.66;10321846;28;20233;-67
2023/10/04 07:46:43;;;;;;;4.28;3.97;;;15.00;99.90;;;16.22;87.62;99209.22;10319508;28;20259;-67
2023/10/04 07:51:46;;;;;;;3.97;3.50;;;15.20;99.90;;;16.37;85.34;99199.78;10317545;28;20234;-67
2023/10/04 07:56:49;;;;;;;4.07;3.67;;;15.30;99.90;;;16.62;82.67;99199.41;10322273;28;20247;-68
2023/10/04 08:01:55;;;;;;;4.32;3.00;;;15.80;99.90;;;16.89;81.98;99206.94;10317042;28;20523;-67
2023/10/04 08:06:58;;;;;;;6.25;3.13;;;16.00;99.90;;;17.37;78.21;99199.09;10320267;28;20761;-67
2023/10/04 08:12:01;;;;;;;3.90;2.83;;;16.40;99.90;;;17.33;77.76;99206.69;10321242;28;20678;-67
2023/10/04 08:17:06;;;;;;;3.28;2.72;;;16.40;99.90;;;17.76;77.07;99201.13;10321601;28;20246;-67
2023/10/04 08:22:10;;;;;;;5.10;3.70;;;16.90;99.90;;;17.93;76.44;99195.94;10320480;28;20295;-67
2023/10/04 08:27:13;;;;;;;4.20;3.30;;;17.00;99.90;;;17.90;73.96;99200.97;10316419;28;20238;-67
2023/10/04 08:32:18;;;;;;;3.75;2.95;;;17.00;99.90;;;17.89;75.73;99191.44;10317381;28;20249;-67
2023/10/04 08:37:22;;;;;;;5.45;3.00;;;17.00;99.90;;;18.19;71.54;99189.47;10319766;28;20246;-67
2023/10/04 08:42:25;;;;;;;4.47;2.88;;;17.40;99.90;;;18.68;69.52;99196.97;10319265;28;20743;-67
2023/10/04 08:47:30;;;;;;;3.38;2.72;;;17.70;99.90;;;18.86;67.51;99182.31;10316562;28;20230;-68
2023/10/04 08:52:37;;;;;;;5.38;2.88;;;18.00;99.90;;;18.92;65.24;99180.81;10316879;28;20339;-67
2023/10/04 08:57:42;;;;;;;3.60;2.85;;;18.00;99.90;;;18.83;67.53;99181.28;10317194;28;20234;-67
2023/10/04 09:02:47;;;;;;;6.60;2.72;;;18.10;99.90;;;19.08;67.85;99185.84;10315725;28;20263;-67
2023/10/04 09:07:51;;;;;;;4.20;2.72;;;18.40;99.90;;;19.16;66.31;99183.63;10316491;28;20223;-67
2023/10/04 09:12:54;;;;;;;5.25;3.10;;;18.30;99.90;;;19.28;65.16;99174.66;10319011;28;20242;-67
2023/10/04 09:18:05;;;;;;;3.63;2.47;;;18.40;99.90;;;19.29;65.06;99173.84;10316284;28;20235;-67
2023/10/04 09:23:22;;;;;;;3.50;2.60;;;18.50;99.90;;;19.34;65.40;99161.06;10315510;28;20226;-67
2023/10/04 09:28:40;;;;;;;5.90;2.65;;;18.60;99.90;;;19.54;62.22;99160.25;10314759;28;20234;-67
2023/10/04 09:33:45;;;;;;;4.18;2.60;;;18.70;99.90;;;19.32;63.08;99163.63;10317527;28;20237;-67
2023/10/04 09:39:08;;;;;;;3.90;2.20;;;18.50;99.90;;;19.05;62.81;99157.22;10312207;28;20233;-67
2023/10/04 09:44:23;;;;;;;3.08;2.22;;;18.30;99.90;;;18.84;60.54;99150.25;10316313;28;20233;-68
2023/10/04 09:49:31;;;;;;;5.53;2.30;;;18.00;99.90;;;18.74;63.83;99145.47;10314398;28;20238;-67
2023/10/04 09:54:35;;;;;;;4.30;2.40;;;18.00;99.90;;;19.24;61.73;99146.84;10314728;28;20274;-67
2023/10/04 09:59:43;;;;;;;3.75;2.33;;;18.60;99.90;;;19.74;59.62;99152.44;10315862;28;20238;-67
2023/10/04 10:04:49;;;;;;;3.88;1.75;;;19.00;99.90;;;19.71;59.50;99149.72;10314211;28;20238;-67
2023/10/04 10:10:05;;;;;;;5.38;2.30;;;19.00;99.90;;;19.80;59.07;99145.81;10316072;28;20229;-67
2023/10/04 10:15:19;;;;;;;4.07;2.20;;;19.10;99.90;;;20.18;56.63;99140.41;10313198;28;20259;-67
2023/10/04 10:20:24;;;;;;;4.35;2.00;;;19.20;99.90;;;20.16;56.10;99142.91;10314297;28;20239;-67
2023/10/04 10:25:29;;;;;;;3.97;2.40;;;19.40;99.90;;;20.04;55.66;99137.25;10316716;28;20392;-67
2023/10/04 10:30:32;;;;;;;3.17;2.28;;;19.20;99.90;;;20.28;56.39;99134.72;10326436;28;20313;-67
2023/10/04 10:35:59;;;;;;;4.47;2.72;;;19.60;99.90;;;20.17;56.20;99134.31;10327533;28;20230;-67
2023/10/04 10:41:03;;;;;;;3.97;2.30;;;19.20;99.90;;;20.21;54.04;99124.94;10326005;28;20338;-67
2023/10/04 10:46:30;;;;;;;4.60;2.65;;;19.30;99.90;;;20.10;54.16;99128.81;10327813;28;20237;-67
2023/10/04 10:51:43;;;;;;;4.68;2.05;;;19.30;99.90;;;20.34;53.57;99131.47;10326651;28;20238;-67
2023/10/04 10:56:46;;;;;;;3.85;2.30;;;19.60;99.00;;;19.71;54.37;99118.56;10327774;28;20269;-67
2023/10/04 11:01:49;;;;;;;4.00;2.25;;;19.20;98.70;;;19.84;55.02;99123.47;10328724;28;20593;-67
2023/10/04 11:06:54;;;;;;;4.32;2.58;;;19.20;99.30;;;19.67;54.06;99122.75;10325810;28;20238;-67
2023/10/04 11:11:57;;;;;;;4.25;2.28;;;19.10;99.00;;;20.01;52.89;99117.22;10328563;28;20223;-67
2023/10/04 11:17:01;;;;;;;3.95;2.15;;;19.20;98.40;;;20.19;52.55;99111.00;10325441;28;20237;-67
2023/10/04 11:22:05;;;;;;;3.05;2.03;;;19.60;97.80;;;20.21;51.05;99099.84;10322119;28;20222;-68
2023/10/04 11:27:10;;;;;;;3.42;1.88;;;19.60;96.60;;;20.36;50.91;99099.53;10329158;28;20226;-67
2023/10/04 11:32:14;;;;;;;3.40;1.90;;;19.60;96.50;;;20.48;50.19;99094.81;10327960;28;20314;-67
2023/10/04 11:37:19;;;;;;;3.75;1.92;;;19.70;96.00;;;19.89;49.74;99095.09;10326340;28;20317;-67
2023/10/04 11:42:24;;;;;;;3.60;2.03;;;19.20;95.30;;;19.29;51.51;99090.91;10320027;28;20235;-67
2023/10/04 11:47:31;;;;;;;3.75;2.00;;;18.60;96.30;;;19.05;53.13;99079.47;10318518;28;20254;-67
2023/10/04 11:52:36;;;;;;;3.67;2.10;;;18.20;97.80;;;19.24;54.75;99081.16;10319742;28;20223;-67
2023/10/04 11:57:39;;;;;;;2.75;2.00;;;18.40;99.80;;;19.61;53.72;99075.78;10321042;28;20231;-67
2023/10/04 12:02:43;;;;;;;3.70;2.10;;;18.80;98.40;;;19.58;51.45;99058.38;10315514;28;20254;-67
2023/10/04 12:07:48;;;;;;;2.67;1.83;;;18.70;96.90;;;19.72;50.88;99053.78;10318082;28;20242;-67
2023/10/04 12:12:52;;;;;;;3.15;1.83;;;18.90;96.00;;;19.75;49.91;99051.31;10320421;28;20622;-67
2023/10/04 12:17:55;;;;;;;2.15;1.58;;;18.90;95.70;;;19.73;49.17;99047.75;10317807;28;20289;-67
2023/10/04 12:23:01;;;;;;;2.55;1.95;;;18.90;94.80;;;19.67;49.68;99031.97;10317632;28;20262;-67
2023/10/04 12:28:08;;;;;;;4.28;2.30;;;18.90;94.90;;;20.07;49.51;99027.44;10317363;28;20234;-67
2023/10/04 12:33:11;;;;;;;3.22;1.95;;;19.20;95.20;;;19.75;47.88;99027.97;10321235;28;20223;-67
2023/10/04 12:38:16;;;;;;;3.38;1.95;;;19.20;93.60;;;19.63;48.08;99021.34;10318755;28;20246;-68
2023/10/04 12:43:20;;;;;;;4.25;2.10;;;18.90;93.60;;;19.69;47.20;99016.47;10318459;28;20219;-67
2023/10/04 12:48:23;;;;;;;3.47;2.00;;;18.90;93.10;;;19.61;48.25;99016.13;10316957;28;20223;-67
2023/10/04 12:53:28;;;;;;;2.13;1.88;;;18.90;94.20;;;19.63;47.22;99008.38;10318980;28;20734;-67
2023/10/04 12:58:33;;;;;;;3.35;2.10;;;18.80;93.10;;;19.92;47.45;99017.38;10317184;28;20227;-67
2023/10/04 13:03:36;;;;;;;2.05;1.60;;;19.00;94.00;;;20.08;47.50;99014.50;10318106;28;20231;-67
2023/10/04 13:08:41;;;;;;;2.25;1.70;;;19.40;93.20;;;19.82;49.59;99008.31;10315208;28;20231;-67
2023/10/04 13:13:45;;;;;;;2.60;1.60;;;19.10;94.50;;;19.92;48.07;99007.88;10317083;28;20226;-67
2023/10/04 13:18:48;;;;;;;2.45;1.42;;;19.10;93.10;;;19.82;48.26;98999.66;10313581;28;20226;-67
2023/10/04 13:23:53;;;;;;;3.72;1.80;;;19.00;93.80;;;19.55;48.11;99005.50;10315983;28;20733;-67
2023/10/04 13:28:56;;;;;;;3.65;1.80;;;18.70;93.70;;;19.69;48.64;98999.19;10314964;28;20245;-67
2023/10/04 13:34:00;;;;;;;2.33;1.70;;;18.60;94.40;;;19.35;48.83;99004.72;10322289;28;20338;-67
2023/10/04 13:39:04;;;;;;;1.92;1.70;;;18.40;94.00;;;19.28;49.07;98990.59;10318474;28;20222;-67
2023/10/04 13:44:08;;;;;;;3.03;1.70;;;18.40;94.20;;;19.06;48.50;98987.97;10318823;28;20231;-68
2023/10/04 13:49:11;;;;;;;3.33;1.85;;;18.30;93.30;;;19.22;47.98;98989.47;10311221;28;20230;-67
2023/10/04 13:54:16;;;;;;;4.20;2.05;;;18.40;93.30;;;19.19;47.79;98985.03;10310203;28;20707;-68
2023/10/04 13:59:19;;;;;;;3.30;1.60;;;18.40;93.10;;;18.96;49.00;98980.59;10312312;28;20218;-67
2023/10/04 14:04:22;;;;;;;2.97;1.80;;;18.20;93.70;;;18.93;50.41;98972.69;10311205;28;20232;-67
2023/10/04 14:09:28;;;;;;;2.13;1.80;;;18.10;94.90;;;18.88;50.44;98982.88;10319419;28;20399;-67
2023/10/04 14:14:32;;;;;;;2.78;1.83;;;18.20;94.50;;;18.94;48.08;98967.56;10314980;28;20219;-67
2023/10/04 14:19:36;;;;;;;1.80;1.60;;;18.20;93.10;;;18.97;48.84;98964.22;10320503;28;20250;-67
2023/10/04 14:24:42;;;;;;;3.42;1.60;;;18.20;93.60;;;19.05;49.75;98949.88;10310035;28;20718;-67
2023/10/04 14:29:45;;;;;;;3.53;1.77;;;18.20;94.10;;;19.03;49.72;98947.25;10313369;28;20624;-67
2023/10/04 14:34:50;;;;;;;3.08;1.75;;;18.20;94.70;;;19.12;51.01;98946.72;10309629;28;20238;-67
2023/10/04 14:39:58;;;;;;;2.95;1.70;;;18.20;95.40;;;18.94;49.15;98940.78;10304437;28;20288;-67
2023/10/04 14:45:04;;;;;;;2.72;1.33;;;18.20;93.70;;;18.92;49.71;98942.44;10305912;28;20241;-67
2023/10/04 14:50:09;;;;;;;2.97;1.42;;;18.10;94.30;;;18.88;49.89;98951.78;10306017;28;20235;-67
2023/10/04 14:55:17;;;;;;;3.50;1.73;;;18.10;94.50;;;18.86;51.08;98937.91;10304262;28;20226;-66
2023/10/04 15:00:21;;;;;;;4.10;2.00;;;18.00;95.20;;;18.83;51.50;98943.81;10305835;28;20242;-67
2023/10/04 15:05:25;;;;;;;1.98;1.52;;;18.00;95.70;;;18.78;52.50;98957.41;10306777;28;20668;-67
2023/10/04 15:10:31;;;;;;;2.83;1.65;;;17.90;96.60;;;18.71;51.99;98951.03;10305149;28;20731;-67
2023/10/04 15:15:35;;;;;;;4.03;1.60;;;17.90;96.30;;;18.66;52.18;98965.50;10316501;28;20626;-67
2023/10/04 15:20:38;;;;;;;3.72;1.77;;;17.80;95.90;;;18.61;52.49;98961.81;10315081;28;20366;-67
2023/10/04 15:25:42;;;;;;;3.40;1.85;;;17.80;96.40;;;18.67;52.85;98982.81;10311329;28;20643;-67
2023/10/04 15:30:45;;;;;;;4.65;2.00;;;17.80;96.50;;;18.61;52.93;98977.38;10311982;28;22237;-67
2023/10/04 15:35:48;;;;;;;2.22;1.73;;;17.80;96.90;;;18.55;53.37;98982.28;10317616;28;20729;-67
2023/10/04 15:40:55;;;;;;;2.78;1.70;;;17.70;97.10;;;18.40;54.89;98983.38;10317131;28;20230;-67
2023/10/04 15:45:59;;;;;;;3.45;1.65;;;17.50;97.60;;;18.21;53.71;98984.25;10318528;28;20231;-67
2023/10/04 15:51:02;;;;;;;2.13;1.70;;;17.40;97.10;;;18.14;55.11;98973.53;10317349;28;20231;-67
2023/10/04 15:56:08;;;;;;;3.35;1.50;;;17.30;98.70;;;18.05;54.35;98962.78;10320258;28;20227;-67
2023/10/04 16:01:12;;;;;;;2.65;1.65;;;17.20;97.60;;;17.93;55.42;98956.25;10317955;28;20246;-67
2023/10/04 16:06:19;;;;;;;2.88;1.60;;;17.10;98.70;;;17.79;55.46;98942.66;10314070;28;20231;-67
2023/10/04 16:11:24;;;;;;;3.05;1.60;;;16.90;98.40;;;17.74;56.98;98935.47;10315584;28;20234;-66
2023/10/04 16:16:27;;;;;;;2.33;1.50;;;16.80;99.90;;;17.56;57.47;98928.63;10314378;28;20799;-67
2023/10/04 16:21:31;;;;;;;2.58;1.60;;;16.70;99.80;;;17.46;57.61;98934.22;10318956;28;20234;-66
2023/10/04 16:26:40;;;;;;;2.75;1.90;;;16.60;99.90;;;17.38;60.10;98950.16;10317322;28;20235;-66
2023/10/04 16:31:44;;;;;;;3.22;1.70;;;16.50;99.90;;;17.18;64.97;98952.69;10313930;28;20702;-66
2023/10/04 16:36:47;;;;;;;3.28;1.77;;;16.20;99.90;;;16.96;65.09;98950.72;10320152;28;20226;-66
2023/10/04 16:41:51;;;;;;;4.13;1.92;;;16.00;99.90;;;16.67;65.67;98960.44;10297365;28;20234;-66
2023/10/04 16:46:54;;;;;;;4.30;1.70;;;15.70;99.90;;;16.51;68.00;98955.34;10305564;28;20506;-66
2023/10/04 16:51:58;;;;;;;3.55;2.30;;;15.50;99.90;;;16.31;70.10;98969.78;10301458;28;20905;-66
2023/10/04 16:57:04;;;;;;;3.92;2.35;;;15.40;99.90;;;16.06;73.18;98975.34;10300951;28;20227;-66
2023/10/04 17:02:07;;;;;;;3.47;1.92;;;15.10;99.90;;;15.89;74.08;98973.53;10302128;28;20234;-68
2023/10/04 17:07:10;;;;;;;2.95;2.00;;;14.90;99.90;;;15.72;74.35;98978.66;10303888;28;20264;-66
2023/10/04 17:12:15;;;;;;;2.00;1.80;;;14.70;99.90;;;15.55;75.47;98977.69;10303333;28;20494;-66
2023/10/04 17:17:20;;;;;;;3.92;1.98;;;14.60;99.90;;;15.40;76.81;98987.16;10310552;28;20231;-66
2023/10/04 17:22:24;;;;;;;4.55;2.08;;;14.50;99.90;;;15.19;78.40;98983.34;10297773;28;20223;-66
2023/10/04 17:27:28;;;;;;;4.18;2.35;;;14.20;99.90;;;15.17;78.48;98990.13;10304532;28;20273;-66
2023/10/04 17:32:32;;;;;;;4.90;2.78;;;14.10;99.90;;;14.96;80.11;98993.22;10306524;28;20234;-66
2023/10/04 17:37:36;;;;;;;4.78;2.53;;;14.00;99.90;;;14.93;80.70;99002.44;10306202;28;20235;-66
2023/10/04 17:42:40;;;;;;;4.43;2.60;;;13.90;99.90;;;14.57;81.73;99002.06;10303587;28;20705;-66
2023/10/04 17:47:44;;;;;;;2.40;2.20;;;13.60;99.90;;;14.44;82.43;99010.69;10305012;28;20246;-66
2023/10/04 17:52:47;;;;;;;2.72;2.17;;;13.50;99.90;;;14.34;81.27;99008.38;10287449;28;20240;-66
2023/10/04 17:57:52;;;;;;;3.10;2.63;;;13.40;99.90;;;14.21;82.71;98993.88;10303165;28;20253;-65
2023/10/04 18:02:55;;;;;;;3.35;2.10;;;13.30;99.90;;;13.81;82.89;98999.09;10301844;28;20230;-67
2023/10/04 18:07:59;;;;;;;4.30;2.45;;;12.90;99.90;;;13.68;85.67;98994.91;10298586;28;20261;-66
2023/10/04 18:13:04;;;;;;;3.70;2.70;;;12.80;99.90;;;13.54;86.47;98994.81;10300588;28;20250;-66
2023/10/04 18:18:08;;;;;;;3.42;2.45;;;12.70;99.90;;;13.59;87.63;98993.41;10300533;28;20231;-67
2023/10/04 18:23:13;;;;;;;3.22;2.65;;;12.80;99.90;;;13.51;87.36;98993.81;10290378;28;20230;-66
2023/10/04 18:28:17;;;;;;;4.25;3.10;;;12.70;99.90;;;13.45;88.68;98990.00;10297320;28;20245;-65
2023/10/04 18:33:21;;;;;;;3.45;2.90;;;12.60;99.90;;;13.32;90.97;98987.41;10305110;28;20230;-66
2023/10/04 18:38:25;;;;;;;3.00;2.50;;;12.50;99.90;;;13.21;90.06;98984.09;10300767;28;20242;-65
2023/10/04 18:43:29;;;;;;;3.25;2.35;;;12.30;99.90;;;13.05;88.96;98987.38;10294109;28;20234;-67
2023/10/04 18:48:33;;;;;;;2.50;1.85;;;12.20;99.90;;;12.85;88.67;98986.06;10295261;28;20241;-65
2023/10/04 18:53:38;;;;;;;2.67;2.45;;;12.10;99.90;;;12.97;88.67;98986.84;10306949;28;20258;-68
2023/10/04 18:58:42;;;;;;;3.85;2.35;;;12.10;99.90;;;12.87;89.83;99002.41;10312450;28;20233;-64
2023/10/04 19:03:45;;;;;;;2.53;2.33;;;12.10;99.90;;;12.77;91.47;98994.91;10315581;28;20238;-65
2023/10/04 19:08:49;;;;;;;5.47;2.53;;;12.00;99.90;;;12.83;90.59;98985.94;10315602;28;20234;-67
2023/10/04 19:13:54;;;;;;;4.03;2.63;;;12.00;99.90;;;12.69;91.41;98996.06;10309794;28;20231;-65
2023/10/04 19:18:58;;;;;;;3.58;3.22;;;11.90;99.90;;;12.62;91.82;98990.53;10312975;28;20246;-66
2023/10/04 19:24:01;;;;;;;3.10;2.80;;;11.80;99.90;;;12.53;92.26;98999.25;10311859;28;20242;-66
2023/10/04 19:29:07;;;;;;;2.83;2.42;;;11.70;99.90;;;12.51;92.56;99009.44;10310521;28;20253;-66
2023/10/04 19:34:10;;;;;;;4.43;2.55;;;11.70;99.90;;;12.47;92.06;99016.81;10308142;28;20479;-66
2023/10/04 19:39:15;;;;;;;3.58;2.70;;;11.60;99.90;;;12.25;94.64;99023.03;10315087;28;20237;-66
2023/10/04 19:44:20;;;;;;;4.22;3.72;;;11.40;99.90;;;12.39;93.44;99016.31;10309146;28;20238;-68
2023/10/04 19:49:23;;;;;;;6.65;5.18;;;11.30;99.90;;;12.21;95.74;99009.91;10311645;28;20230;-65
2023/10/04 19:54:26;;;;;;;4.90;3.80;;;11.30;99.90;;;12.04;94.72;99012.16;10312749;28;21486;-67
2023/10/04 19:59:31;;;;;;;3.92;3.17;;;11.20;99.90;;;11.85;95.39;99016.78;10311663;28;20243;-65
2023/10/04 20:04:34;;;;;;;4.57;3.28;;;11.00;99.90;;;11.84;94.71;99002.16;10310643;28;20231;-66
2023/10/04 20:09:38;;;;;;;3.88;3.47;;;11.00;99.90;;;11.83;94.97;99005.53;10312591;28;20711;-65
2023/10/04 20:14:43;;;;;;;6.03;3.97;;;11.00;99.90;;;11.62;95.55;99012.56;10308870;28;20238;-65
2023/10/04 20:19:46;;;;;;;3.83;3.13;;;10.80;99.90;;;11.46;95.24;99031.06;10309196;28;20234;-66
2023/10/04 20:24:49;;;;;;;4.28;3.17;;;10.60;99.90;;;11.40;95.94;99012.69;10310137;28;20231;-65
2023/10/04 20:29:54;;;;;;;3.63;3.03;;;10.60;99.90;;;11.35;95.81;99004.66;10312321;28;20230;-65
2023/10/04 20:34:58;;;;;;;3.35;2.85;;;10.50;99.90;;;11.22;95.53;99004.59;10298548;28;20234;-65
2023/10/04 20:40:04;;;;;;;3.67;2.80;;;10.40;99.90;;;11.21;96.09;99001.09;10298915;28;20231;-65
2023/10/04 20:45:11;;;;;;;2.85;2.65;;;10.40;99.90;;;11.13;95.22;99001.31;10306610;28;20971;-66
2023/10/04 20:50:16;;;;;;;4.90;3.30;;;10.30;99.90;;;10.89;96.58;98990.19;10304842;28;20227;-65
2023/10/04 20:55:19;;;;;;;3.00;2.70;;;10.20;99.90;;;10.82;96.64;99001.66;10309526;28;20238;-65
2023/10/04 21:00:23;;;;;;;3.35;2.72;;;10.10;99.90;;;10.80;97.00;99006.63;10312030;28;25750;-65
2023/10/04 21:05:27;;;;;;;4.35;3.35;;;10.10;99.90;;;10.82;97.60;98999.09;10312962;28;20227;-65